createdAt,value
2022-09-28T00:09:52.431Z,12.70
2022-09-28T00:19:52.435Z,15.20
2022-09-28T00:29:52.437Z,17.90
2022-09-28T00:39:52.442Z,17.70
2022-09-28T00:49:52.470Z,18.00
2022-09-28T00:59:52.440Z,18.00
2022-09-28T01:09:52.448Z,17.80
2022-09-28T01:19:52.496Z,17.20
2022-09-28T01:29:52.480Z,17.90
2022-09-28T01:39:52.455Z,17.30
2022-09-28T01:49:52.489Z,16.60
2022-09-28T01:59:52.466Z,17.70
2022-09-28T02:09:52.473Z,17.10
2022-09-28T02:19:52.486Z,16.70
2022-09-28T02:29:52.517Z,17.50
2022-09-28T02:39:52.536Z,18.00
2022-09-28T02:49:52.506Z,16.70
2022-09-28T02:59:52.482Z,17.30
2022-09-28T03:09:52.480Z,17.90
2022-09-28T03:19:52.479Z,17.30
2022-09-28T03:29:52.488Z,16.60
2022-09-28T03:39:52.502Z,19.10
2022-09-28T03:49:52.547Z,17.20
2022-09-28T03:59:52.514Z,18.00
2022-09-28T04:09:52.510Z,15.70
2022-09-28T04:19:52.515Z,11.70
2022-09-28T04:29:52.517Z,9.50
2022-09-28T04:39:52.530Z,7.10
2022-09-28T04:49:52.563Z,6.30
2022-09-28T04:59:52.519Z,7.00
2022-09-28T05:09:52.526Z,9.20
2022-09-28T05:19:52.544Z,10.50
2022-09-28T05:29:52.540Z,7.80
2022-09-28T05:39:52.540Z,7.10
2022-09-28T05:49:52.570Z,5.80
2022-09-28T05:59:52.547Z,5.90
2022-09-28T06:09:52.562Z,6.10
2022-09-28T06:19:52.557Z,6.50
2022-09-28T06:29:52.562Z,4.40
2022-09-28T06:39:52.570Z,5.50
2022-09-28T06:49:52.600Z,5.20
2022-09-28T06:59:52.573Z,5.10
2022-09-28T07:09:55.218Z,4.90
2022-09-28T07:19:52.590Z,4.70
2022-09-28T07:29:52.583Z,3.70
2022-09-28T07:39:52.591Z,3.40
2022-09-28T07:49:52.622Z,3.40
2022-09-28T07:59:52.592Z,4.40
2022-09-28T08:09:52.590Z,5.10
2022-09-28T08:19:52.604Z,3.70
2022-09-28T08:29:52.605Z,3.90
2022-09-28T08:39:52.605Z,3.30
2022-09-28T08:49:52.675Z,3.40
2022-09-28T08:59:52.606Z,3.60
2022-09-28T09:09:52.623Z,3.20
2022-09-28T09:19:52.622Z,3.30
2022-09-28T09:29:52.614Z,2.50
2022-09-28T09:39:52.636Z,2.20
2022-09-28T09:49:52.667Z,2.10
2022-09-28T09:59:52.641Z,1.70
2022-09-28T10:09:52.635Z,2.30
2022-09-28T10:19:52.642Z,1.90
2022-09-28T10:29:52.647Z,2.10
2022-09-28T10:39:52.654Z,2.30
2022-09-28T10:49:52.684Z,4.30
2022-09-28T10:59:52.664Z,1.80
2022-09-28T11:09:52.666Z,1.70
2022-09-28T11:19:52.675Z,1.60
2022-09-28T11:29:52.669Z,1.10
2022-09-28T11:39:52.672Z,0.90
2022-09-28T11:49:52.720Z,0.80
2022-09-28T11:59:52.693Z,1.20
2022-09-28T12:19:52.695Z,1.30
2022-09-28T12:29:52.737Z,0.70
2022-09-28T12:39:57.841Z,1.00
2022-09-28T12:50:37.512Z,1.10
2022-09-28T12:59:52.712Z,0.80
2022-09-28T13:09:52.722Z,0.90
2022-09-28T13:19:52.709Z,1.40
2022-09-28T13:29:52.725Z,1.00
2022-09-28T13:39:52.785Z,1.10
2022-09-28T13:49:52.842Z,1.00
2022-09-28T13:59:52.716Z,1.10
2022-09-28T14:09:52.727Z,1.70
2022-09-28T14:19:52.728Z,2.10
2022-09-28T14:29:52.751Z,2.20
2022-09-28T14:39:52.755Z,2.70
2022-09-28T14:49:52.790Z,2.80
2022-09-28T14:59:52.754Z,2.90
2022-09-28T15:09:52.764Z,3.10
2022-09-28T15:19:52.760Z,6.10
2022-09-28T15:29:52.757Z,2.80
2022-09-28T15:39:52.768Z,2.60
2022-09-28T15:49:52.815Z,2.70
2022-09-28T15:59:52.773Z,2.30
2022-09-28T16:09:52.784Z,2.90
2022-09-28T16:19:52.780Z,3.00
2022-09-28T16:29:52.789Z,4.80
2022-09-28T16:39:52.789Z,5.10
2022-09-28T16:49:52.831Z,5.40
2022-09-28T16:59:52.798Z,5.50
2022-09-28T17:09:52.828Z,5.00
2022-09-28T17:19:52.849Z,5.30
2022-09-28T17:29:52.817Z,7.50
2022-09-28T17:39:52.860Z,7.10
2022-09-28T17:49:52.856Z,9.40
2022-09-28T17:59:52.863Z,11.60
2022-09-28T18:09:52.868Z,3.80
2022-09-28T18:19:52.891Z,4.60
2022-09-28T18:29:52.877Z,9.00
2022-09-28T18:39:52.893Z,9.70
2022-09-28T18:49:53.028Z,6.40
2022-09-28T18:59:53.087Z,4.10
2022-09-28T19:09:52.909Z,7.10
2022-09-28T19:19:53.095Z,10.50
2022-09-28T19:29:53.024Z,7.20
2022-09-28T19:39:53.039Z,9.40
2022-09-28T19:49:52.990Z,13.60
2022-09-28T19:59:54.310Z,9.40
2022-09-28T20:09:52.978Z,13.80
2022-09-28T20:19:52.897Z,16.20
2022-09-28T20:29:52.876Z,14.70
2022-09-28T20:39:52.880Z,13.50
2022-09-28T20:49:52.955Z,16.20
2022-09-28T20:59:54.900Z,23.10
2022-09-28T21:09:52.879Z,20.20
2022-09-28T21:19:52.885Z,25.30
2022-09-28T21:29:52.892Z,21.00
2022-09-28T21:39:52.893Z,20.90
2022-09-28T21:49:52.939Z,16.90
2022-09-28T21:59:52.902Z,25.50
2022-09-28T22:09:53.593Z,15.90
2022-09-28T22:19:52.913Z,17.20
2022-09-28T22:29:52.908Z,20.50
2022-09-28T22:39:52.908Z,19.50
2022-09-28T22:49:52.984Z,19.00
2022-09-28T22:59:52.931Z,17.30
2022-09-28T23:09:52.917Z,18.90
2022-09-28T23:19:52.919Z,18.10
2022-09-28T23:29:52.917Z,20.50
2022-09-28T23:39:52.963Z,19.00
2022-09-28T23:49:52.999Z,21.80
2022-09-28T23:59:52.940Z,26.20
